Latest Coastal Weather Observations for Cape Nelson

IDS60701

Issued at 6:01 pm CST Friday 27 May 2016 (issued every 10 minutes, with the page automatically refreshed every 10 minutes)

About coastal observations | Map of coastal stations | Coastal observations for SA | Marine services | Other Formats
Station Details ID: 090184 Name: CAPE NELSON LIGHTHOUSE Lat: -38.43 Lon: 141.54 Height: 45.4 m
Data from the previous 72 hours. | See also: Recent months at Cape Nelson
Date/Time
CST
Temp

°C
Wind Pressure Rain
since 9am
mm
Weather Cloud Vis
km
Sea
Height
m
Swell
Dir
 
Speed
knots
Gust
knots
hPa Trend Height
m
Period
s
Dir
27/06:00pm 12.5 E 16 23 1005.9 - 0.2 - - - - - - -
27/05:30pm 12.5 E 11 18 1005.7 - 0.2 - - - - - - -
27/05:00pm 12.2 ENE 10 15 1005.4 - 0.2 - - - - - - -
27/04:30pm 12.4 ENE 9 13 1005.2 - 0.2 - - - - - - -
27/04:00pm 12.2 ENE 9 12 1005.1 - 0.0 - - - - - - -
27/03:30pm 12.1 ENE 10 14 1005.0 - 0.0 - - - - - - -
27/03:00pm 11.9 NE 9 11 1004.9 - 0.0 - - - - - - -
27/02:30pm 12.0 NE 8 12 1004.8 - 0.0 - - - - - - -
27/02:00pm 12.7 NE 9 13 1004.8 - 0.0 - - - - - - -
27/01:30pm 13.1 NNE 10 15 1004.9 - 0.0 - - - - - - -
27/01:00pm 14.3 NNE 10 14 1005.0 - 0.0 - - - - - - -
27/12:30pm 13.0 NE 9 13 1005.3 - 0.0 - - - - - - -
27/12:00pm 12.8 NE 8 11 1005.5 - 0.0 - - - - - - -
27/11:30am 12.2 NNE 8 11 1005.8 - 0.0 - - - - - - -
27/11:00am 11.8 N 9 13 1006.6 - 0.0 - - - - - - -
27/10:30am 11.6 N 7 11 1007.1 - 0.0 - - - - - - -
27/10:00am 11.3 N 5 8 1007.5 - 0.0 - - - - - - -
27/09:30am 11.0 N 7 9 1007.6 - 0.0 - - - - - - -
27/09:00am 10.3 N 7 9 1007.6 - 0.0 - - - - - - -
27/08:30am 9.3 N 7 9 1007.5 - 0.4 - - - - - - -
27/08:00am 9.0 N 8 10 1007.5 - 0.4 - - - - - - -
27/07:30am 8.8 N 7 8 1007.4 - 0.4 - - - - - - -
27/07:00am 9.0 N 8 10 1007.4 - 0.4 - - - - - - -
27/06:30am 9.2 N 6 8 1007.1 - 0.4 - - - - - - -
27/06:00am 10.3 N 4 6 1007.1 - 0.4 - - - - - - -
27/05:30am 11.2 NNE 4 25 1007.3 - 0.4 - - - - - - -
27/05:00am 11.8 NNW 6 13 1007.4 - 0.4 - - - - - - -
27/04:30am 11.7 SE 4 9 1007.3 - 0.4 - - - - - - -
27/04:00am 11.7 ESE 5 8 1007.4 - 0.4 - - - - - - -
27/03:30am 11.6 NE 6 9 1007.4 - 0.4 - - - - - - -
27/03:00am 11.8 NE 6 10 1007.6 - 0.4 - - - - - - -
27/02:30am 11.6 NE 6 11 1007.7 - 0.4 - - - - - - -
27/02:00am 11.9 WNW 7 12 1007.8 - 0.4 - - - - - - -
27/01:30am 11.8 N 7 14 1007.7 - 0.4 - - - - - - -
27/01:00am 11.8 NNE 7 11 1007.8 - 0.4 - - - - - - -
27/12:30am 11.9 N 7 12 1007.8 - 0.4 - - - - - - -
27/12:00am 12.0 NNW 7 13 1008.1 - 0.4 - - - - - - -
 
Date/Time
CST
Temp

°C
Wind Pressure Rain
since 9am
mm
Weather Cloud Vis
km
Sea
Height
m
Swell
Dir
 
Speed
knots
Gust
knots
hPa Trend Height
m
Period
s
Dir
26/11:30pm 12.2 WNW 7 13 1008.3 - 0.4 - - - - - - -
26/11:00pm 12.2 N 7 11 1008.3 - 0.4 - - - - - - -
26/10:30pm 12.2 NW 9 15 1008.3 - 0.4 - - - - - - -
26/10:00pm 12.3 WNW 9 14 1008.5 - 0.4 - - - - - - -
26/09:30pm 12.1 NNW 7 11 1008.6 - 0.4 - - - - - - -
26/09:00pm 12.0 N 7 11 1008.6 - 0.4 - - - - - - -
26/08:30pm 12.2 NW 9 13 1008.3 - 0.4 - - - - - - -
26/08:00pm 11.9 N 6 11 1008.2 - 0.4 - - - - - - -
26/07:30pm 11.6 N 8 13 1008.1 - 0.4 - - - - - - -
26/07:00pm 12.6 NE 5 9 1007.9 - 0.0 - - - - - - -
26/06:30pm 12.5 ENE 5 10 1007.7 - 0.0 - - - - - - -
26/06:00pm 12.5 NNE 7 10 1007.5 - 0.0 - - - - - - -
26/05:30pm 12.3 ENE 7 12 1007.2 - 0.0 - - - - - - -
26/05:00pm 12.2 NE 6 10 1006.9 - 0.0 - - - - - - -
26/04:30pm 12.2 NE 6 11 1006.7 - 0.0 - - - - - - -
26/04:00pm 12.4 NE 7 12 1006.6 - 0.0 - - - - - - -
26/03:30pm 12.8 E 7 11 1006.5 - 0.0 - - - - - - -
26/03:00pm 13.0 NE 7 11 1006.3 - 0.0 - - - - - - -
26/02:30pm 13.9 ENE 7 12 1006.0 - 0.0 - - - - - - -
26/02:00pm 13.7 E 7 11 1006.0 - 0.0 - - - - - - -
26/01:30pm 13.7 ENE 7 12 1005.9 - 0.0 - - - - - - -
26/01:00pm 14.2 NE 8 12 1005.8 - 0.0 - - - - - - -
26/12:30pm 13.9 ESE 9 17 1005.9 - 0.0 - - - - - - -
26/12:00pm 13.7 SE 8 13 1005.8 - 0.0 - - - - - - -
26/11:30am 13.7 SSE 10 17 1005.9 - 0.0 - - - - - - -
26/11:00am 13.4 S 10 19 1006.0 - 0.0 - - - - - - -
26/10:30am 13.5 E 9 15 1006.0 - 0.0 - - - - - - -
26/10:00am 13.1 SSE 11 18 1006.1 - 0.0 - - - - - - -
26/09:30am 13.4 SSE 9 15 1005.9 - 0.0 - - - - - - -
26/09:00am 12.5 SE 9 15 1005.7 - 0.0 - - - - - - -
26/08:30am 12.9 SE 9 16 1005.5 - 13.0 - - - - - - -
26/08:00am 12.6 SE 9 19 1005.3 - 13.0 - - - - - - -
26/07:30am 12.8 SSE 8 14 1004.9 - 13.0 - - - - - - -
26/07:00am 12.5 S 15 20 1004.9 - 13.0 - - - - - - -
26/06:30am 12.4 S 8 13 1004.7 - 13.0 - - - - - - -
26/06:00am 11.4 WNW 4 10 1004.7 - 13.0 - - - - - - -
26/05:30am 11.4 S 11 15 1004.8 - 12.8 Rain - - - - - -
26/05:07am 11.8 S 14 25 1004.7 - 12.4 - - - - - - -
26/05:00am 12.5 S 8 13 1004.7 - 12.4 - - - - - - -
26/04:30am 11.9 SE 9 16 1004.4 - 12.4 - - - - - - -
26/04:00am 12.0 SE 12 22 1004.0 - 12.4 - - - - - - -
26/03:30am 12.8 S 13 18 1004.3 - 12.4 - - - - - - -
26/03:00am 12.7 S 12 15 1004.2 - 12.4 - - - - - - -
26/02:30am 12.5 S 11 15 1004.4 - 12.4 - - - - - - -
26/02:00am 12.1 SW 3 6 1004.3 - 12.4 - - - - - - -
26/01:30am 11.5 NW 1 4 1004.4 - 12.4 - - - - - - -
26/01:00am 11.6 NW 5 6 1004.7 - 12.4 - - - - - - -
26/12:30am 11.5 NNW 5 6 1005.0 - 12.4 - - - - - - -
26/12:00am 11.4 NW 5 6 1005.0 - 12.2 - - - - - - -
 
Date/Time
CST
Temp

°C
Wind Pressure Rain
since 9am
mm
Weather Cloud Vis
km
Sea
Height
m
Swell
Dir
 
Speed
knots
Gust
knots
hPa Trend Height
m
Period
s
Dir
25/11:30pm 11.4 NW 5 6 1005.0 - 12.2 Rain - - - - - -
25/11:00pm 11.3 NW 7 10 1005.2 - 11.8 - - - - - - -
25/10:30pm 11.3 NNW 9 12 1005.2 - 11.6 - - - - - - -
25/10:00pm 11.3 NNW 10 15 1005.8 - 11.6 - - - - - - -
25/09:30pm 11.2 NNW 9 12 1005.7 - 11.6 - - - - - - -
25/09:00pm 11.2 NNW 11 15 1005.9 - 11.4 - - - - - - -
25/08:30pm 11.2 NNW 12 18 1005.7 - 11.2 Rain - - - - - -
25/08:00pm 11.2 NNW 11 17 1005.6 - 9.2 - - - - - - -
25/07:30pm 11.2 NNW 13 19 1005.4 - 8.2 - - - - - - -
25/07:00pm 11.1 NNW 14 21 1005.5 - 7.8 - - - - - - -
25/06:30pm 11.1 NNW 15 20 1005.2 - 7.6 - - - - - - -
25/06:00pm 11.0 NNW 13 20 1005.1 - 7.6 - - - - - - -
25/05:30pm 10.9 NNW 14 20 1005.0 - 7.6 Recent precip. - - - - - -
25/05:00pm 10.9 N 15 21 1005.0 - 7.4 - - - - - - -
25/04:30pm 11.0 NNW 14 20 1005.2 - 6.2 - - - - - - -
25/04:00pm 11.0 NNW 13 17 1005.3 - 4.4 - - - - - - -
25/03:30pm 11.2 NNW 13 18 1005.6 - 4.0 - - - - - - -
25/03:00pm 11.2 NW 12 19 1006.1 - 2.8 - - - - - - -
25/02:30pm 11.2 NNW 14 19 1005.9 - 1.8 Recent precip. - - - - - -
25/02:00pm 11.3 NNW 12 18 1005.9 - 1.6 - - - - - - -
25/01:30pm 11.4 NNW 14 21 1006.0 - 1.4 - - - - - - -
25/01:00pm 11.2 N 16 24 1006.1 - 1.4 - - - - - - -
25/12:30pm 11.5 NNW 15 23 1006.7 - 1.0 - - - - - - -
25/12:00pm 12.3 NNW 13 19 1007.1 - 0.4 - - - - - - -
25/11:33am 13.0 NNW 15 25 1007.4 - 0.0 - - - - - - -
25/11:30am 13.1 NNW 14 22 1007.4 - 0.0 - - - - - - -
25/11:00am 13.0 NNW 15 23 1008.2 - 0.0 - - - - - - -
25/10:30am 12.8 NNW 16 22 1008.8 - 0.0 - - - - - - -
25/10:00am 12.9 NNW 18 25 1008.6 - 0.0 - - - - - - -
25/09:30am 13.4 NNW 16 28 1008.8 - 0.0 - - - - - - -
25/09:22am 13.5 NNW 18 28 1008.9 - 0.0 - - - - - - -
25/09:00am 13.5 NNW 16 23 1008.6 - 0.0 - - - - - - -
25/08:49am 13.5 NNW 16 27 1008.6 - 0.0 - - - - - - -
25/08:30am 13.3 NNW 16 25 1008.9 - 0.0 - - - - - - -
25/08:00am 13.0 N 15 21 1009.0 - 0.0 - - - - - - -
25/07:33am 13.0 NNW 16 26 1009.5 - 0.0 - - - - - - -
25/07:30am 13.0 NNW 15 21 1009.5 - 0.0 - - - - - - -
25/07:19am 13.1 N 16 26 1009.4 - 0.0 - - - - - - -
25/07:00am 13.0 N 15 24 1009.3 - 0.0 - - - - - - -
25/06:30am 12.7 N 14 24 1009.6 - 0.0 - - - - - - -
25/06:00am 12.5 N 14 21 1010.1 - 0.0 - - - - - - -
25/05:30am 12.4 N 13 20 1010.4 - 0.0 - - - - - - -
25/05:00am 12.3 N 14 21 1010.6 - 0.0 - - - - - - -
25/04:30am 12.2 N 14 20 1010.9 - 0.0 - - - - - - -
25/04:07am 12.0 N 15 25 1011.2 - 0.0 - - - - - - -
25/04:00am 11.9 N 14 21 1011.3 - 0.0 - - - - - - -
25/03:30am 11.9 N 14 21 1011.8 - 0.0 - - - - - - -
25/03:00am 11.9 N 12 16 1012.0 - 0.0 - - - - - - -
25/02:30am 11.8 N 11 16 1012.6 - 0.0 - - - - - - -
25/02:00am 11.8 N 11 15 1013.2 - 0.0 - - - - - - -
25/01:30am 11.9 N 12 18 1013.6 - 0.0 - - - - - - -
25/01:00am 12.1 N 11 16 1013.8 - 0.0 - - - - - - -
25/12:30am 12.4 N 12 17 1014.6 - 0.0 - - - - - - -
25/12:00am 12.3 N 11 17 1015.2 - 0.0 - - - - - - -
 
Date/Time
CST
Temp

°C
Wind Pressure Rain
since 9am
mm
Weather Cloud Vis
km
Sea
Height
m
Swell
Dir
 
Speed
knots
Gust
knots
hPa Trend Height
m
Period
s
Dir
24/11:30pm 12.5 N 11 16 1015.5 - 0.0 - - - - - - -
24/11:00pm 12.7 N 10 13 1015.7 - 0.0 - - - - - - -
24/10:30pm 12.5 N 9 12 1016.2 - 0.0 - - - - - - -
24/10:00pm 12.2 N 7 9 1016.5 - 0.0 - - - - - - -
24/09:30pm 12.4 N 8 11 1016.7 - 0.0 - - - - - - -
24/09:00pm 12.3 N 7 10 1017.0 - 0.0 - - - - - - -
24/08:30pm 12.5 N 7 8 1017.5 - 0.0 - - - - - - -
24/08:00pm 12.7 NNE 7 10 1017.4 - 0.0 - - - - - - -
24/07:30pm 13.0 NNE 6 8 1017.6 - 0.0 - - - - - - -
24/07:00pm 13.4 N 5 7 1017.9 - 0.0 - - - - - - -
24/06:30pm 13.4 NNE 6 8 1017.9 - 0.0 - - - - - - -
24/06:00pm 12.7 NNE 5 7 1018.0 - 0.0 - - - - - - -

Other Formats:

Comma delimited format used in spreadsheet applications
http://www.bom.gov.au/fwo/IDS60701/IDS60701.94826.axf

JavaScript Object Notation format (JSON) in row-major order
http://www.bom.gov.au/fwo/IDS60701/IDS60701.94826.json